Time;durP1;ratioP1;P1;durP2;ratioP2;P2;SDS_P1;SDS_P2;PMS_P1;PMS_P2;Temp;Humidity;BMP_temperature;BMP_pressure;BME280_temperature;BME280_humidity;BME280_pressure;Samples;Min_cycle;Max_cycle;Signal;HPM_P1;HPM_P2
2022/12/04 00:01:53;;;;;;;60.58;19.38;;;6.50;99.90;;;;;;5031618;28;20030;-60
2022/12/04 00:04:19;;;;;;;54.85;18.13;;;6.60;99.90;;;;;;5031397;28;20091;-61
2022/12/04 00:06:44;;;;;;;60.17;18.63;;;6.60;99.90;;;;;;5031691;28;20108;-60
2022/12/04 00:09:11;;;;;;;63.05;19.20;;;6.60;99.90;;;;;;5031548;28;20064;-59
2022/12/04 00:11:37;;;;;;;59.20;18.73;;;6.60;99.90;;;;;;5031525;28;20057;-59
2022/12/04 00:14:03;;;;;;;59.70;19.52;;;6.60;99.90;;;;;;5031408;28;20171;-60
2022/12/04 00:16:29;;;;;;;63.20;19.75;;;6.60;99.90;;;;;;5031152;28;20569;-60
2022/12/04 00:18:55;;;;;;;59.42;17.85;;;6.60;99.90;;;;;;5031434;28;20037;-60
2022/12/04 00:21:22;;;;;;;59.25;18.70;;;6.60;99.90;;;;;;5031389;28;20374;-60
2022/12/04 00:23:48;;;;;;;55.97;19.27;;;6.60;99.90;;;;;;5031411;28;20079;-59
2022/12/04 00:26:23;;;;;;;61.85;18.73;;;6.60;99.90;;;;;;5031072;28;20037;-60
2022/12/04 00:28:50;;;;;;;68.57;19.50;;;6.60;99.90;;;;;;5031043;28;20462;-61
2022/12/04 00:31:18;;;;;;;68.93;18.38;;;6.60;99.90;;;;;;5031374;28;20125;-61
2022/12/04 00:33:45;;;;;;;61.35;19.02;;;6.60;99.90;;;;;;5031175;28;20037;-60
2022/12/04 00:36:13;;;;;;;65.70;19.90;;;6.60;99.90;;;;;;5031201;28;20028;-60
2022/12/04 00:38:41;;;;;;;63.47;19.15;;;6.60;99.90;;;;;;5031246;28;20033;-60
2022/12/04 00:41:09;;;;;;;68.97;21.42;;;6.60;99.90;;;;;;5031114;28;20022;-61
2022/12/04 00:43:34;;;;;;;64.25;19.25;;;6.60;99.90;;;;;;5031143;28;20033;-59
2022/12/04 00:46:00;;;;;;;67.95;20.88;;;6.50;99.90;;;;;;5031141;28;20378;-60
2022/12/04 00:48:26;;;;;;;62.05;20.05;;;6.60;99.90;;;;;;5031273;28;20381;-60
2022/12/04 00:50:53;;;;;;;69.07;20.77;;;6.60;99.90;;;;;;5030793;28;20025;-61
2022/12/04 00:53:19;;;;;;;64.93;19.65;;;6.50;99.90;;;;;;5029630;28;20029;-60
2022/12/04 00:55:45;;;;;;;70.85;18.98;;;6.50;99.90;;;;;;5030929;28;20510;-60
2022/12/04 00:58:11;;;;;;;61.75;18.95;;;6.50;99.90;;;;;;5030816;28;20036;-60
2022/12/04 01:00:39;;;;;;;60.20;18.70;;;6.50;99.90;;;;;;5030920;28;20474;-59
2022/12/04 01:03:05;;;;;;;60.65;19.10;;;6.50;99.90;;;;;;5031088;28;20044;-61
2022/12/04 01:05:31;;;;;;;58.05;18.73;;;6.50;99.90;;;;;;5032081;28;20493;-61
2022/12/04 01:07:57;;;;;;;63.72;19.60;;;6.50;99.90;;;;;;5034915;28;20125;-62
2022/12/04 01:10:23;;;;;;;59.42;18.58;;;6.50;99.90;;;;;;5034753;28;20427;-59
2022/12/04 01:12:50;;;;;;;57.47;16.80;;;6.50;99.90;;;;;;5034829;28;20033;-60
2022/12/04 01:15:16;;;;;;;58.90;18.42;;;6.50;99.90;;;;;;5034416;28;20444;-61
2022/12/04 01:17:44;;;;;;;69.50;19.90;;;6.50;99.90;;;;;;5052184;28;20478;-60
2022/12/04 01:20:14;;;;;;;51.80;17.63;;;6.50;99.90;;;;;;5054627;28;20055;-60
2022/12/04 01:22:40;;;;;;;65.03;18.27;;;6.50;99.90;;;;;;5054608;28;20481;-61
2022/12/04 01:25:06;;;;;;;62.88;18.75;;;6.50;99.90;;;;;;5054569;28;20032;-61
2022/12/04 01:27:32;;;;;;;52.40;16.20;;;6.50;99.90;;;;;;5054348;28;20090;-61
2022/12/04 01:29:58;;;;;;;51.70;16.48;;;6.50;99.90;;;;;;5054381;28;20033;-60
2022/12/04 01:32:23;;;;;;;52.47;16.92;;;6.40;99.90;;;;;;5054420;28;20108;-62
2022/12/04 01:34:49;;;;;;;59.83;18.95;;;6.30;99.90;;;;;;5054283;28;20374;-60
2022/12/04 01:37:15;;;;;;;57.80;18.42;;;6.20;99.90;;;;;;5054306;28;20075;-61
2022/12/04 01:39:40;;;;;;;57.63;18.80;;;6.20;99.90;;;;;;5054186;28;20613;-61
2022/12/04 01:42:14;;;;;;;58.83;18.30;;;6.30;99.90;;;;;;5054050;28;20032;-60
2022/12/04 01:45:04;;;;;;;63.75;19.90;;;6.30;99.90;;;;;;5054241;28;20017;-60
2022/12/04 01:47:30;;;;;;;61.28;18.15;;;6.30;99.90;;;;;;5052584;28;20040;-61
2022/12/04 01:49:57;;;;;;;61.80;19.63;;;6.30;99.90;;;;;;5053957;28;20021;-60
2022/12/04 01:52:25;;;;;;;55.25;18.30;;;6.40;99.90;;;;;;5053940;28;20117;-60
2022/12/04 01:54:59;;;;;;;64.30;20.27;;;6.40;99.90;;;;;;5052700;28;20021;-61
2022/12/04 01:57:30;;;;;;;65.35;19.20;;;6.40;99.90;;;;;;5053824;28;20029;-60
2022/12/04 02:00:03;;;;;;;58.38;18.77;;;6.40;99.90;;;;;;5053816;28;20025;-61
2022/12/04 02:02:35;;;;;;;58.25;19.98;;;6.40;99.90;;;;;;5053896;28;20021;-60
2022/12/04 02:05:03;;;;;;;58.83;20.15;;;6.40;99.90;;;;;;5053861;28;20025;-60
2022/12/04 02:07:30;;;;;;;61.08;20.38;;;6.40;99.90;;;;;;5053724;28;20048;-60
2022/12/04 02:10:02;;;;;;;68.95;21.00;;;6.40;99.90;;;;;;5053679;28;20029;-60
2022/12/04 02:12:37;;;;;;;68.57;21.83;;;6.40;99.90;;;;;;5053796;28;20385;-62
2022/12/04 02:15:21;;;;;;;62.22;20.92;;;6.40;99.90;;;;;;5053475;28;20041;-61
2022/12/04 02:18:00;;;;;;;62.33;21.33;;;6.40;99.90;;;;;;5052488;28;20380;-61
2022/12/04 02:20:38;;;;;;;55.20;19.70;;;6.40;99.90;;;;;;5053744;28;20536;-59
2022/12/04 02:23:15;;;;;;;62.95;20.73;;;6.40;99.90;;;;;;5053649;28;20036;-60
2022/12/04 02:26:11;;;;;;;61.05;20.27;;;6.40;99.90;;;;;;5053364;28;20017;-61
2022/12/04 02:29:00;;;;;;;71.70;22.15;;;6.40;99.90;;;;;;5053526;28;20103;-61
2022/12/04 02:31:34;;;;;;;65.03;22.10;;;6.40;99.90;;;;;;5053332;28;20027;-60
2022/12/04 02:34:11;;;;;;;62.38;20.08;;;6.40;99.90;;;;;;5053211;28;20025;-59
2022/12/04 02:36:48;;;;;;;62.20;23.40;;;6.40;99.90;;;;;;5053272;28;20029;-61
2022/12/04 02:39:25;;;;;;;65.40;22.00;;;6.40;99.90;;;;;;5053413;28;20035;-60
2022/12/04 02:42:00;;;;;;;64.38;22.00;;;6.40;99.90;;;;;;5053204;28;20055;-60
2022/12/04 02:44:37;;;;;;;66.38;21.08;;;6.40;99.90;;;;;;5053117;28;20465;-59
2022/12/04 02:47:09;;;;;;;76.90;23.85;;;6.40;99.90;;;;;;5052950;28;20021;-59
2022/12/04 02:49:48;;;;;;;72.90;24.05;;;6.40;99.90;;;;;;5053194;28;20025;-60
2022/12/04 02:52:20;;;;;;;63.38;23.35;;;6.40;99.90;;;;;;5053085;28;20184;-61
2022/12/04 02:54:50;;;;;;;66.30;23.50;;;6.40;99.90;;;;;;5053084;28;20090;-61
2022/12/04 02:57:28;;;;;;;69.45;22.60;;;6.40;99.90;;;;;;5052625;28;20028;-60
2022/12/04 02:59:56;;;;;;;68.40;24.40;;;6.40;99.90;;;;;;5052962;28;20033;-61
2022/12/04 03:02:24;;;;;;;65.90;25.13;;;6.40;99.90;;;;;;5051317;28;20044;-60
2022/12/04 03:04:53;;;;;;;71.22;23.95;;;6.40;99.90;;;;;;5052741;28;20036;-61
2022/12/04 03:07:33;;;;;;;71.90;25.67;;;6.40;99.90;;;;;;5052748;28;20120;-61
2022/12/04 03:10:22;;;;;;;74.72;23.38;;;6.40;99.90;;;;;;5052567;28;20020;-60
2022/12/04 03:12:51;;;;;;;71.75;23.05;;;6.30;99.90;;;;;;5052425;28;20642;-61
2022/12/04 03:15:27;;;;;;;64.75;23.23;;;6.30;99.90;;;;;;5052617;28;20168;-60
2022/12/04 03:17:57;;;;;;;71.45;23.90;;;6.30;99.90;;;;;;5052687;28;20078;-61
2022/12/04 03:20:23;;;;;;;75.45;25.08;;;6.30;99.90;;;;;;5052414;28;20021;-59
2022/12/04 03:22:57;;;;;;;76.18;25.73;;;6.30;99.90;;;;;;5052577;28;20094;-61
2022/12/04 03:25:31;;;;;;;75.72;23.67;;;6.30;99.90;;;;;;5052179;28;20032;-59
2022/12/04 03:28:01;;;;;;;77.78;25.70;;;6.30;99.90;;;;;;5052003;28;20037;-60
2022/12/04 03:30:43;;;;;;;75.18;26.13;;;6.30;99.90;;;;;;5052208;28;20032;-60
2022/12/04 03:33:14;;;;;;;;;;;6.30;99.90;;;;;;5052477;28;20031;-60
2022/12/04 03:35:48;;;;;;;68.07;23.75;;;6.30;99.90;;;;;;5052004;28;19992;-60
2022/12/04 03:38:36;;;;;;;69.78;24.08;;;6.30;99.90;;;;;;5050850;28;20025;-60
2022/12/04 03:41:07;;;;;;;72.05;24.42;;;6.30;99.90;;;;;;5051962;28;20370;-60
2022/12/04 03:43:40;;;;;;;70.43;24.20;;;6.30;99.90;;;;;;5052017;28;20021;-60
2022/12/04 03:46:15;;;;;;;64.93;23.58;;;6.30;99.90;;;;;;5051834;28;20036;-60
2022/12/04 03:49:10;;;;;;;72.00;24.25;;;6.30;99.90;;;;;;5051824;28;20037;-60
2022/12/04 03:51:43;;;;;;;69.72;24.95;;;6.30;99.90;;;;;;5051750;28;20021;-61
2022/12/04 03:54:12;;;;;;;69.05;25.33;;;6.30;99.90;;;;;;5051919;28;20507;-60
2022/12/04 03:56:43;;;;;;;70.65;25.05;;;6.30;99.90;;;;;;5051558;28;20032;-61
2022/12/04 03:59:14;;;;;;;70.93;23.73;;;6.30;99.90;;;;;;5051835;28;20516;-59
2022/12/04 04:01:45;;;;;;;62.38;23.65;;;6.30;99.90;;;;;;5051586;28;20108;-59
2022/12/04 04:04:16;;;;;;;82.40;25.80;;;6.30;99.90;;;;;;5051634;28;20036;-61
2022/12/04 04:06:49;;;;;;;70.78;26.75;;;6.30;99.90;;;;;;5051546;28;20094;-60
2022/12/04 04:09:20;;;;;;;68.00;23.85;;;6.30;99.90;;;;;;5051462;28;20025;-60
2022/12/04 04:12:01;;;;;;;67.95;24.65;;;6.30;99.90;;;;;;5051721;28;20017;-59
2022/12/04 04:25:55;;;;;;;66.90;24.38;;;6.20;99.90;;;;;;5051573;28;20036;-61
2022/12/04 04:28:34;;;;;;;65.60;23.52;;;6.20;99.90;;;;;;5051198;28;20615;-60
2022/12/04 04:31:09;;;;;;;59.22;23.48;;;6.30;99.90;;;;;;5051096;28;20028;-60
2022/12/04 04:33:48;;;;;;;63.88;23.25;;;6.30;99.90;;;;;;5050973;28;20635;-59
2022/12/04 04:36:26;;;;;;;58.53;21.45;;;6.30;99.90;;;;;;5051166;28;20480;-59
2022/12/04 04:39:01;;;;;;;63.42;22.40;;;6.20;99.90;;;;;;5051208;28;20017;-60
2022/12/04 04:41:58;;;;;;;62.40;21.33;;;6.30;99.90;;;;;;5050603;28;20036;-60
2022/12/04 04:44:43;;;;;;;59.78;22.02;;;6.30;99.90;;;;;;5051161;28;20421;-60
2022/12/04 04:47:17;;;;;;;58.83;22.38;;;6.30;99.90;;;;;;5049675;28;20115;-60
2022/12/04 04:49:45;;;;;;;67.38;23.50;;;6.20;99.90;;;;;;5051171;28;20036;-60
2022/12/04 04:52:10;;;;;;;60.28;22.23;;;6.30;99.90;;;;;;5051277;28;20382;-63
2022/12/04 04:54:37;;;;;;;63.55;22.48;;;6.30;99.90;;;;;;5051136;28;20021;-61
2022/12/04 04:57:03;;;;;;;62.80;22.38;;;6.30;99.90;;;;;;5050923;28;20033;-60
2022/12/04 04:59:29;;;;;;;65.90;23.00;;;6.30;99.90;;;;;;5049698;28;20379;-61
2022/12/04 05:01:56;;;;;;;61.00;21.77;;;6.20;99.90;;;;;;5051032;28;20032;-60
2022/12/04 05:04:21;;;;;;;65.75;24.08;;;6.20;99.90;;;;;;5050897;28;20022;-60
2022/12/04 05:06:47;;;;;;;55.67;22.33;;;6.20;99.90;;;;;;5050796;28;20035;-60
2022/12/04 05:09:13;;;;;;;64.30;22.77;;;6.20;99.90;;;;;;5050929;28;20035;-60
2022/12/04 05:11:39;;;;;;;60.97;22.40;;;6.20;99.90;;;;;;5050945;28;20021;-61
2022/12/04 05:14:05;;;;;;;57.63;21.70;;;6.20;99.90;;;;;;5050963;28;20720;-59
2022/12/04 05:16:31;;;;;;;66.63;23.50;;;6.20;99.90;;;;;;5050647;28;20053;-60
2022/12/04 05:21:42;;;;;;;70.65;25.90;;;6.20;99.90;;;;;;5051227;28;20032;-60
2022/12/04 05:24:08;;;;;;;76.47;27.40;;;6.20;99.90;;;;;;5049287;28;20029;-61
2022/12/04 05:26:34;;;;;;;72.80;25.90;;;6.20;99.90;;;;;;5049331;28;20431;-60
2022/12/04 05:28:59;;;;;;;69.82;27.30;;;6.20;99.90;;;;;;5050811;28;20036;-60
2022/12/04 05:31:25;;;;;;;74.93;25.02;;;6.20;99.90;;;;;;5050515;28;20060;-61
2022/12/04 05:33:50;;;;;;;68.60;23.80;;;6.20;99.90;;;;;;5050531;28;20029;-60
2022/12/04 05:36:16;;;;;;;67.63;26.00;;;6.20;99.90;;;;;;5050577;28;20025;-60
2022/12/04 05:38:42;;;;;;;62.67;24.45;;;6.20;99.90;;;;;;5050497;28;20035;-61
2022/12/04 05:41:08;;;;;;;58.58;21.40;;;6.10;99.90;;;;;;5050436;28;20052;-59
2022/12/04 05:43:34;;;;;;;55.80;20.55;;;6.10;99.90;;;;;;5050620;28;20121;-59
2022/12/04 05:46:06;;;;;;;53.72;18.48;;;6.10;99.90;;;;;;5050473;28;20470;-60
2022/12/04 05:48:33;;;;;;;48.72;19.45;;;6.10;99.90;;;;;;5050425;28;20029;-60
2022/12/04 05:51:00;;;;;;;61.50;20.10;;;6.20;99.90;;;;;;5050612;28;20021;-60
2022/12/04 05:53:25;;;;;;;48.22;18.65;;;6.10;99.90;;;;;;5052927;28;20100;-60
2022/12/04 05:55:58;;;;;;;45.45;20.02;;;6.10;99.90;;;;;;5054032;28;20131;-63
2022/12/04 05:58:25;;;;;;;43.85;18.38;;;6.10;99.90;;;;;;5053974;28;20017;-60
2022/12/04 06:00:51;;;;;;;40.20;17.80;;;6.10;99.90;;;;;;5053970;28;20024;-59
2022/12/04 06:03:16;;;;;;;42.90;18.08;;;6.10;99.90;;;;;;5054013;28;20025;-60
2022/12/04 06:05:42;;;;;;;46.55;17.27;;;6.10;99.90;;;;;;5053798;28;20028;-59
2022/12/04 06:08:08;;;;;;;48.30;18.13;;;6.10;99.90;;;;;;5053690;28;20048;-60
2022/12/04 06:10:33;;;;;;;44.05;17.60;;;6.10;99.90;;;;;;5053504;28;20021;-60
2022/12/04 06:12:59;;;;;;;42.22;17.25;;;6.00;99.90;;;;;;5053691;28;20028;-61
2022/12/04 06:15:25;;;;;;;47.38;17.77;;;6.00;99.90;;;;;;5053910;28;20048;-60
2022/12/04 06:17:51;;;;;;;42.88;17.45;;;6.00;99.90;;;;;;5053824;28;20032;-59
2022/12/04 06:20:16;;;;;;;38.42;16.45;;;6.00;99.90;;;;;;5053593;28;20025;-60
2022/12/04 06:22:42;;;;;;;41.95;16.73;;;6.00;99.90;;;;;;5053588;28;20393;-59
2022/12/04 06:25:08;;;;;;;40.25;15.55;;;6.00;99.90;;;;;;5053451;28;20127;-60
2022/12/04 06:27:34;;;;;;;38.85;17.08;;;5.90;99.90;;;;;;5053344;28;20037;-63
2022/12/04 06:30:01;;;;;;;36.80;15.57;;;5.90;99.90;;;;;;5053403;28;20381;-60
2022/12/04 06:32:27;;;;;;;31.88;13.88;;;5.90;99.90;;;;;;5053566;28;20104;-60
2022/12/04 06:34:53;;;;;;;32.30;14.85;;;5.90;99.90;;;;;;5053313;28;20502;-61
2022/12/04 06:37:24;;;;;;;35.45;14.50;;;5.90;99.90;;;;;;5053186;28;20060;-62
2022/12/04 06:39:49;;;;;;;31.63;13.38;;;5.90;99.90;;;;;;5053168;28;20024;-59
2022/12/04 06:42:15;;;;;;;35.83;13.88;;;5.90;99.90;;;;;;5053185;28;20096;-60
2022/12/04 06:44:41;;;;;;;30.75;13.45;;;5.80;99.90;;;;;;5053232;28;20036;-60
2022/12/04 06:47:07;;;;;;;37.85;14.50;;;5.80;99.90;;;;;;5052816;28;20033;-61
2022/12/04 06:49:33;;;;;;;33.28;13.45;;;5.80;99.90;;;;;;5053047;28;20029;-60
2022/12/04 06:51:59;;;;;;;34.45;14.00;;;5.80;99.90;;;;;;5052996;28;20086;-60
2022/12/04 06:54:25;;;;;;;28.35;12.60;;;5.80;99.90;;;;;;5053023;28;20028;-59
2022/12/04 06:56:51;;;;;;;34.95;12.48;;;5.80;99.90;;;;;;5052836;28;20104;-61
2022/12/04 06:59:17;;;;;;;35.78;13.55;;;5.80;99.90;;;;;;5052923;28;20070;-60
2022/12/04 07:01:42;;;;;;;33.53;12.88;;;5.70;99.90;;;;;;5052775;28;20078;-60
2022/12/04 07:04:08;;;;;;;31.95;12.60;;;5.70;99.90;;;;;;5052320;28;20397;-60
2022/12/04 07:06:36;;;;;;;28.65;11.68;;;5.70;99.90;;;;;;5052810;28;20075;-59
2022/12/04 07:09:13;;;;;;;26.80;11.68;;;5.70;99.90;;;;;;5052580;28;20107;-60
2022/12/04 07:11:40;;;;;;;26.83;12.18;;;5.70;99.90;;;;;;5052605;28;20031;-60
2022/12/04 07:14:05;;;;;;;28.92;11.57;;;5.70;99.90;;;;;;5052610;28;20393;-60
2022/12/04 07:16:33;;;;;;;34.42;12.88;;;5.70;99.90;;;;;;5052426;28;20049;-60
2022/12/04 07:18:58;;;;;;;30.33;12.32;;;5.70;99.90;;;;;;5052649;28;20055;-59
2022/12/04 07:21:27;;;;;;;31.60;13.05;;;5.70;99.90;;;;;;5052532;28;20029;-60
2022/12/04 07:23:56;;;;;;;32.03;12.20;;;5.70;99.90;;;;;;5052438;28;20083;-59
2022/12/04 07:26:23;;;;;;;35.75;13.32;;;5.60;99.90;;;;;;5052382;28;20040;-60
2022/12/04 07:28:49;;;;;;;30.33;11.73;;;5.60;99.90;;;;;;5052488;28;20037;-60
2022/12/04 07:31:17;;;;;;;29.33;11.75;;;5.60;99.90;;;;;;5052135;28;20036;-61
2022/12/04 07:33:44;;;;;;;34.40;13.43;;;5.60;99.90;;;;;;5052168;28;20032;-60
2022/12/04 07:36:13;;;;;;;32.83;14.30;;;5.60;99.90;;;;;;5052018;28;20025;-61
2022/12/04 07:38:39;;;;;;;39.17;14.50;;;5.50;99.90;;;;;;5052068;28;20044;-60
2022/12/04 07:41:05;;;;;;;34.85;14.02;;;5.40;99.90;;;;;;5051862;28;20056;-61
2022/12/04 07:43:32;;;;;;;33.83;13.73;;;5.30;99.90;;;;;;5051989;28;20116;-62
2022/12/04 07:46:03;;;;;;;30.13;11.43;;;5.30;99.90;;;;;;5047782;28;20029;-61
2022/12/04 07:48:29;;;;;;;31.52;12.73;;;5.20;99.90;;;;;;5040487;28;20128;-60
2022/12/04 07:51:09;;;;;;;30.98;13.00;;;5.10;99.90;;;;;;5031987;28;20100;-61
2022/12/04 07:53:35;;;;;;;28.70;11.63;;;5.10;99.90;;;;;;5043017;28;20064;-60
2022/12/04 07:56:03;;;;;;;30.20;12.23;;;5.10;99.90;;;;;;5031785;28;20021;-60
2022/12/04 07:58:28;;;;;;;29.92;12.65;;;5.10;99.90;;;;;;5034842;28;20084;-60
2022/12/04 08:00:54;;;;;;;36.25;13.40;;;5.20;99.90;;;;;;5043028;28;20048;-61
2022/12/04 08:03:20;;;;;;;35.30;12.55;;;5.20;99.90;;;;;;5051571;28;20075;-61
2022/12/04 08:05:46;;;;;;;29.45;11.60;;;5.40;99.90;;;;;;5051410;28;20033;-61
2022/12/04 08:08:11;;;;;;;33.60;12.77;;;5.40;99.90;;;;;;5047122;28;20072;-59
2022/12/04 08:10:40;;;;;;;29.90;11.55;;;5.50;99.90;;;;;;5051470;28;20021;-60
2022/12/04 08:13:06;;;;;;;29.65;11.65;;;5.50;99.90;;;;;;5050399;28;20060;-61
2022/12/04 08:15:33;;;;;;;30.15;12.05;;;5.60;99.90;;;;;;5049291;28;20083;-60
2022/12/04 08:17:59;;;;;;;29.60;11.55;;;5.60;99.90;;;;;;5051449;28;20071;-60
2022/12/04 08:20:25;;;;;;;28.65;12.27;;;5.60;99.90;;;;;;5051534;28;20033;-61
2022/12/04 08:22:50;;;;;;;30.58;12.02;;;5.60;99.90;;;;;;5051544;28;20385;-60
2022/12/04 08:25:17;;;;;;;29.75;12.95;;;5.60;99.90;;;;;;5051451;28;20106;-60
2022/12/04 08:27:45;;;;;;;29.35;12.35;;;5.60;99.90;;;;;;5048956;28;20048;-61
2022/12/04 08:30:11;;;;;;;35.53;13.05;;;5.70;99.90;;;;;;5032081;28;20029;-60
2022/12/04 08:32:37;;;;;;;31.65;12.18;;;5.70;99.90;;;;;;5031474;28;20441;-60
2022/12/04 08:35:03;;;;;;;30.55;12.43;;;5.70;99.90;;;;;;5046470;28;20116;-61
2022/12/04 08:37:29;;;;;;;32.63;12.25;;;5.70;99.90;;;;;;5039490;28;20496;-60
2022/12/04 08:39:54;;;;;;;35.03;13.50;;;5.70;99.90;;;;;;5049922;28;20369;-63
2022/12/04 08:42:20;;;;;;;30.05;12.38;;;5.70;99.90;;;;;;5039464;28;20071;-61
2022/12/04 08:44:46;;;;;;;28.00;12.20;;;5.70;99.90;;;;;;5031254;28;20037;-60
2022/12/04 08:47:11;;;;;;;32.50;11.40;;;5.70;99.90;;;;;;5030871;28;20038;-61
2022/12/04 08:49:37;;;;;;;34.85;13.18;;;5.70;99.90;;;;;;5030602;28;20033;-60
2022/12/04 08:52:03;;;;;;;30.00;12.82;;;5.70;99.90;;;;;;5034581;28;20025;-60
2022/12/04 08:54:28;;;;;;;36.95;11.90;;;5.70;99.90;;;;;;5042165;28;20022;-59
2022/12/04 08:56:54;;;;;;;33.67;13.25;;;5.80;99.90;;;;;;5039877;28;20116;-60
2022/12/04 08:59:20;;;;;;;31.88;12.43;;;5.80;99.90;;;;;;5050844;28;20029;-60
2022/12/04 09:01:48;;;;;;;33.40;12.90;;;5.80;99.90;;;;;;5050823;28;20029;-61
2022/12/04 09:04:13;;;;;;;35.88;14.25;;;5.90;99.90;;;;;;5050805;28;20083;-60
2022/12/04 09:06:39;;;;;;;32.25;11.98;;;5.90;99.90;;;;;;5049781;28;20021;-60
2022/12/04 09:09:04;;;;;;;34.30;13.68;;;5.90;99.90;;;;;;5039730;28;20030;-61
2022/12/04 09:11:31;;;;;;;38.45;13.57;;;5.90;99.90;;;;;;5030961;28;20075;-61
2022/12/04 09:13:57;;;;;;;37.03;14.07;;;5.90;99.90;;;;;;5031111;28;20064;-64
2022/12/04 09:16:24;;;;;;;35.00;13.45;;;6.00;99.90;;;;;;5033834;28;20069;-61
2022/12/04 09:18:50;;;;;;;32.63;12.88;;;5.90;99.90;;;;;;5034231;28;20028;-61
2022/12/04 09:21:19;;;;;;;32.55;13.23;;;6.00;99.90;;;;;;5046998;28;20029;-61
2022/12/04 09:23:45;;;;;;;30.40;13.38;;;6.10;99.90;;;;;;5051883;28;20025;-61
2022/12/04 09:26:22;;;;;;;36.75;13.30;;;6.10;99.90;;;;;;5051193;28;20044;-59
2022/12/04 09:28:48;;;;;;;36.67;13.35;;;6.10;99.90;;;;;;5042301;28;20038;-60
2022/12/04 09:31:15;;;;;;;35.95;14.32;;;6.10;99.90;;;;;;5034790;28;20106;-60
2022/12/04 09:33:40;;;;;;;38.20;14.05;;;6.10;99.90;;;;;;5034289;28;20510;-60
2022/12/04 09:36:06;;;;;;;34.15;13.77;;;6.20;99.90;;;;;;5039311;28;20120;-60
2022/12/04 09:38:32;;;;;;;36.35;12.32;;;6.20;99.90;;;;;;5046624;28;20029;-60
2022/12/04 09:41:01;;;;;;;39.95;14.32;;;6.30;99.90;;;;;;5053162;28;20029;-60
2022/12/04 09:43:44;;;;;;;38.70;14.73;;;6.20;99.90;;;;;;5053967;28;20059;-60
2022/12/04 09:46:17;;;;;;;33.92;13.63;;;6.30;99.90;;;;;;5054147;28;20059;-60
2022/12/04 09:48:47;;;;;;;39.83;14.52;;;6.30;99.90;;;;;;5052296;28;20041;-62
2022/12/04 09:51:18;;;;;;;48.20;15.32;;;6.30;99.90;;;;;;5034610;28;20028;-59
2022/12/04 09:54:01;;;;;;;43.42;16.35;;;6.30;99.90;;;;;;5053453;28;20079;-60
2022/12/04 09:56:29;;;;;;;40.65;15.18;;;6.30;99.90;;;;;;5072593;28;20583;-59
2022/12/04 09:59:15;;;;;;;41.47;15.05;;;6.40;99.90;;;;;;5049157;28;20047;-60
2022/12/04 10:01:48;;;;;;;46.40;16.95;;;6.50;99.90;;;;;;5047374;28;20033;-59
2022/12/04 10:04:15;;;;;;;46.00;15.43;;;6.50;99.90;;;;;;5048218;28;20045;-59
2022/12/04 10:07:09;;;;;;;44.70;15.30;;;6.50;99.90;;;;;;5049042;28;20029;-60
2022/12/04 10:10:23;;;;;;;43.45;16.13;;;6.50;99.90;;;;;;5037186;28;20033;-59
2022/12/04 10:13:33;;;;;;;44.08;15.55;;;6.50;99.90;;;;;;5059371;28;20045;-60
2022/12/04 10:16:17;;;;;;;44.75;16.02;;;6.60;99.90;;;;;;5059295;28;20148;-61
2022/12/04 10:18:46;;;;;;;41.78;15.25;;;6.60;99.90;;;;;;5057833;28;20488;-62
2022/12/04 10:21:25;;;;;;;44.67;15.40;;;6.70;99.90;;;;;;5040881;28;20039;-61
2022/12/04 10:24:06;;;;;;;45.83;16.85;;;6.70;99.90;;;;;;5050693;28;20061;-60
2022/12/04 10:26:38;;;;;;;44.97;17.20;;;6.70;99.90;;;;;;5060358;28;20060;-61
2022/12/04 10:29:11;;;;;;;45.97;16.63;;;6.80;99.90;;;;;;5050996;28;20098;-61
2022/12/04 10:31:39;;;;;;;45.00;17.48;;;6.70;99.90;;;;;;5065169;28;20040;-60
2022/12/04 10:34:13;;;;;;;44.85;17.30;;;6.70;99.90;;;;;;5056446;28;20122;-61
2022/12/04 10:36:40;;;;;;;44.38;16.08;;;6.60;99.90;;;;;;5064891;28;20028;-61
2022/12/04 10:39:17;;;;;;;45.72;16.80;;;6.60;99.90;;;;;;5055799;28;20058;-61
2022/12/04 10:42:22;;;;;;;48.75;18.08;;;6.50;99.90;;;;;;5060862;28;20032;-61
2022/12/04 10:44:48;;;;;;;44.50;17.02;;;6.50;99.90;;;;;;5056819;28;20033;-62
2022/12/04 10:47:14;;;;;;;49.70;17.75;;;6.50;99.90;;;;;;5058004;28;20044;-60
2022/12/04 10:49:40;;;;;;;50.72;18.15;;;6.50;99.90;;;;;;5064624;28;20025;-63
2022/12/04 10:52:10;;;;;;;51.67;18.73;;;6.60;99.90;;;;;;5064223;28;20054;-61
2022/12/04 10:54:59;;;;;;;47.60;17.58;;;6.60;99.90;;;;;;5052597;28;20037;-62
2022/12/04 10:57:37;;;;;;;50.83;18.85;;;6.60;99.90;;;;;;5043774;28;20024;-62
2022/12/04 11:00:22;;;;;;;59.88;20.00;;;6.70;99.90;;;;;;5057611;28;20162;-62
2022/12/04 11:02:49;;;;;;;46.63;18.13;;;6.70;99.90;;;;;;5040619;28;20119;-61
2022/12/04 11:05:51;;;;;;;50.63;18.95;;;6.80;99.90;;;;;;5055069;28;20039;-63
2022/12/04 11:08:23;;;;;;;51.67;18.73;;;6.80;99.90;;;;;;5066873;28;20053;-63
2022/12/04 11:11:01;;;;;;;60.90;19.85;;;6.90;99.90;;;;;;5049998;28;20408;-63
2022/12/04 11:13:27;;;;;;;55.97;18.75;;;6.90;99.90;;;;;;5033431;28;20117;-62
2022/12/04 11:15:55;;;;;;;50.58;19.88;;;6.90;99.90;;;;;;5032285;28;20044;-63
2022/12/04 11:18:27;;;;;;;45.97;19.02;;;7.00;99.90;;;;;;5034923;28;20040;-61
2022/12/04 11:21:14;;;;;;;53.83;18.90;;;7.00;99.90;;;;;;5032649;28;20021;-62
2022/12/04 11:23:45;;;;;;;51.53;18.88;;;7.10;99.90;;;;;;5032333;28;20037;-62
2022/12/04 11:26:11;;;;;;;50.58;17.92;;;7.10;99.90;;;;;;5032192;28;20026;-62
2022/12/04 11:28:39;;;;;;;45.60;17.48;;;7.20;99.90;;;;;;5032128;28;20049;-61
2022/12/04 11:31:07;;;;;;;50.08;17.77;;;7.20;99.90;;;;;;5032198;28;20025;-58
2022/12/04 11:33:43;;;;;;;50.08;18.83;;;7.30;99.90;;;;;;5033465;28;20030;-60
2022/12/04 11:36:21;;;;;;;48.70;18.10;;;7.30;99.90;;;;;;5033236;28;20025;-60
2022/12/04 11:38:48;;;;;;;46.50;17.02;;;7.40;99.90;;;;;;5052252;28;20090;-59
2022/12/04 11:41:34;;;;;;;55.50;19.27;;;7.40;99.90;;;;;;5052017;28;20525;-60
2022/12/04 11:44:00;;;;;;;42.47;17.52;;;7.50;99.90;;;;;;5052035;28;20607;-60
2022/12/04 11:46:29;;;;;;;49.85;18.48;;;7.50;99.90;;;;;;5048293;28;20121;-59
2022/12/04 11:48:55;;;;;;;42.83;17.33;;;7.50;99.90;;;;;;5050238;28;20043;-60
2022/12/04 11:51:58;;;;;;;47.90;18.20;;;7.60;99.90;;;;;;5029678;28;20029;-59
2022/12/04 11:54:38;;;;;;;40.58;16.75;;;7.70;99.90;;;;;;5029856;28;20025;-60
2022/12/04 11:57:21;;;;;;;44.15;16.55;;;7.70;99.90;;;;;;5043060;28;20032;-60
2022/12/04 12:00:14;;;;;;;42.38;16.05;;;7.70;99.90;;;;;;5044466;28;20028;-59
2022/12/04 12:03:01;;;;;;;39.97;15.77;;;7.80;99.90;;;;;;5038576;28;20075;-59
2022/12/04 12:05:54;;;;;;;37.22;15.07;;;7.80;99.90;;;;;;5041975;28;20087;-58
2022/12/04 12:08:38;;;;;;;38.15;15.05;;;7.70;99.90;;;;;;5040549;28;20029;-59
2022/12/04 12:11:57;;;;;;;35.30;13.35;;;7.60;99.90;;;;;;5038936;28;20028;-58
2022/12/04 12:14:29;;;;;;;34.40;12.88;;;7.70;99.90;;;;;;5033904;28;20048;-59
2022/12/04 12:17:46;;;;;;;29.00;12.73;;;7.60;99.90;;;;;;5042816;28;20036;-60
2022/12/04 12:20:39;;;;;;;35.55;13.00;;;7.50;99.90;;;;;;5023141;28;20060;-60
2022/12/04 12:23:20;;;;;;;26.13;11.52;;;7.50;99.90;;;;;;5030571;28;20033;-59
2022/12/04 12:25:57;;;;;;;26.35;11.43;;;7.40;99.90;;;;;;5031337;28;20434;-60
2022/12/04 12:36:07;;;;;;;30.38;11.80;;;7.40;99.90;;;;;;5049052;28;20386;-84
2022/12/04 12:38:55;;;;;;;33.13;12.18;;;7.50;99.90;;;;;;5039840;28;20037;-82
2022/12/04 12:41:27;;;;;;;26.67;11.77;;;7.50;99.90;;;;;;5031169;28;20022;-81
2022/12/04 12:44:18;;;;;;;25.48;10.75;;;7.40;99.90;;;;;;5030758;28;20025;-82
2022/12/04 12:46:50;;;;;;;23.92;10.88;;;7.40;99.90;;;;;;5034355;28;20470;-80
2022/12/04 12:49:56;;;;;;;27.58;11.77;;;7.40;99.90;;;;;;5034923;28;20040;-81
2022/12/04 12:52:49;;;;;;;27.20;11.45;;;7.30;99.90;;;;;;5051030;28;20029;-75
2022/12/04 12:55:29;;;;;;;25.55;11.57;;;7.30;99.90;;;;;;5049449;28;20029;-78
2022/12/04 12:58:10;;;;;;;25.98;11.65;;;7.40;99.90;;;;;;5037082;28;20033;-78
2022/12/04 13:00:42;;;;;;;24.08;11.50;;;7.30;99.90;;;;;;5043898;28;20148;-76
2022/12/04 13:03:41;;;;;;;28.88;11.63;;;7.30;99.90;;;;;;5033683;28;20113;-76
2022/12/04 13:06:14;;;;;;;24.35;12.07;;;7.40;99.90;;;;;;5035506;28;20034;-74
2022/12/04 13:09:04;;;;;;;32.97;12.73;;;7.40;99.90;;;;;;5034738;28;20037;-78
2022/12/04 13:11:31;;;;;;;34.92;12.60;;;7.40;99.90;;;;;;5055078;28;20118;-79
2022/12/04 13:14:02;;;;;;;31.10;12.20;;;7.40;99.90;;;;;;5051962;28;20082;-81
2022/12/04 13:16:27;;;;;;;34.58;12.00;;;7.40;99.90;;;;;;5037023;28;20049;-78
2022/12/04 13:19:18;;;;;;;27.83;11.18;;;7.30;99.90;;;;;;5045728;28;20013;-79
2022/12/04 13:22:14;;;;;;;32.63;12.25;;;7.30;99.90;;;;;;5044743;28;20041;-78
2022/12/04 13:25:11;;;;;;;37.47;12.48;;;7.30;99.90;;;;;;5040044;28;20113;-77